Time;durP1;ratioP1;P1;durP2;ratioP2;P2;SDS_P1;SDS_P2;PMS_P1;PMS_P2;Temp;Humidity;BMP_temperature;BMP_pressure;BME280_temperature;BME280_humidity;BME280_pressure;Samples;Min_cycle;Max_cycle;Signal;HPM_P1;HPM_P2
2022/09/13 00:02:11;;;;;;;4.00;2.78;;;;;;;20.24;59.35;100947.94;5077462;28;20532;-65
2022/09/13 00:04:39;;;;;;;4.13;2.97;;;;;;;20.23;59.26;100946.28;5081157;28;20110;-65
2022/09/13 00:07:07;;;;;;;5.30;3.00;;;;;;;20.23;59.17;100945.47;5072808;28;20063;-65
2022/09/13 00:09:36;;;;;;;4.43;3.00;;;;;;;20.22;59.36;100943.84;5072658;28;20053;-64
2022/09/13 00:12:04;;;;;;;4.57;2.88;;;;;;;20.20;59.38;100941.41;5076087;28;20143;-65
2022/09/13 00:14:33;;;;;;;4.38;3.17;;;;;;;20.20;59.27;100944.13;5077670;28;20048;-65
2022/09/13 00:17:01;;;;;;;3.80;2.90;;;;;;;20.18;59.35;100940.88;5081103;28;20067;-65
2022/09/13 00:19:28;;;;;;;6.00;3.75;;;;;;;20.19;59.50;100936.22;5079758;28;20523;-65
2022/09/13 00:21:56;;;;;;;3.47;2.80;;;;;;;20.18;59.25;100924.50;5084839;28;20045;-65
2022/09/13 00:24:24;;;;;;;6.55;2.97;;;;;;;20.16;59.36;100932.16;5074342;28;20045;-65
2022/09/13 00:26:51;;;;;;;5.32;2.70;;;;;;;20.15;59.24;100933.25;5075686;28;20061;-64
2022/09/13 00:29:19;;;;;;;4.28;2.80;;;;;;;20.15;59.24;100927.78;5075601;28;20112;-65
2022/09/13 00:31:48;;;;;;;8.32;3.05;;;;;;;20.14;59.35;100929.72;5076620;28;20052;-65
2022/09/13 00:34:16;;;;;;;5.28;3.20;;;;;;;20.10;59.45;100925.09;5082872;28;20044;-65
2022/09/13 00:36:43;;;;;;;5.68;3.20;;;;;;;20.13;59.45;100927.25;5076001;28;20057;-65
2022/09/13 00:39:12;;;;;;;5.05;2.80;;;;;;;20.12;59.42;100922.91;5086438;28;20052;-65
2022/09/13 00:41:40;;;;;;;5.60;3.63;;;;;;;20.13;59.43;100919.91;5076340;28;20518;-65
2022/09/13 00:44:40;;;;;;;5.90;3.58;;;;;;;20.12;59.42;100921.00;5088316;28;20048;-65
2022/09/13 00:47:12;;;;;;;5.35;3.13;;;;;;;20.12;59.49;100918.25;5082905;28;20055;-65
2022/09/13 00:49:42;;;;;;;5.10;3.58;;;;;;;20.09;59.64;100913.38;5089138;28;20067;-65
2022/09/13 00:52:15;;;;;;;3.70;2.72;;;;;;;20.10;59.65;100904.09;5081682;28;20052;-65
2022/09/13 00:54:47;;;;;;;3.78;2.83;;;;;;;20.09;59.70;100910.66;5077183;28;20098;-65
2022/09/13 00:57:18;;;;;;;4.38;3.00;;;;;;;20.08;59.55;100905.47;5079557;28;20045;-65
2022/09/13 00:59:51;;;;;;;7.28;3.63;;;;;;;20.08;59.68;100908.19;5071700;28;20063;-65
2022/09/13 01:02:21;;;;;;;4.22;2.97;;;;;;;20.07;59.56;100906.56;5080601;28;20048;-65
2022/09/13 01:04:49;;;;;;;4.00;2.90;;;;;;;20.06;59.66;100900.28;5075317;28;21224;-65
2022/09/13 01:07:18;;;;;;;4.57;3.22;;;;;;;20.06;59.67;100908.47;5084179;28;20040;-65
2022/09/13 01:09:51;;;;;;;5.25;3.33;;;;;;;20.04;59.79;100899.75;5086063;28;20050;-65
2022/09/13 01:12:30;;;;;;;4.68;3.22;;;;;;;20.01;59.75;100888.59;5079635;28;20053;-65
2022/09/13 01:15:00;;;;;;;6.25;3.15;;;;;;;20.03;59.67;100895.41;5080505;28;20433;-65
2022/09/13 01:17:31;;;;;;;6.53;2.72;;;;;;;20.02;59.74;100884.78;5078245;28;20053;-65
2022/09/13 01:20:00;;;;;;;4.85;2.70;;;;;;;20.00;59.74;100893.25;5082414;28;20087;-65
2022/09/13 01:22:51;;;;;;;3.90;2.95;;;;;;;20.00;59.88;100890.53;5073812;28;20056;-65
2022/09/13 01:26:01;;;;;;;5.20;3.03;;;;;;;19.99;59.77;100893.53;5081107;28;20048;-65
2022/09/13 01:28:53;;;;;;;5.93;3.10;;;;;;;19.98;59.78;100884.53;5074498;28;20048;-65
2022/09/13 01:31:30;;;;;;;5.28;3.03;;;;;;;19.97;59.88;100876.63;5082036;28;20064;-65
2022/09/13 01:34:20;;;;;;;4.65;3.50;;;;;;;19.96;59.87;100880.47;5079647;28;20109;-65
2022/09/13 01:37:03;;;;;;;3.53;2.55;;;;;;;19.95;59.74;100878.81;5072264;28;20041;-65
2022/09/13 01:39:49;;;;;;;4.82;3.08;;;;;;;19.95;60.00;100873.38;5077413;28;20052;-65
2022/09/13 01:42:27;;;;;;;5.57;3.20;;;;;;;19.93;59.89;100870.94;5078759;28;20143;-65
2022/09/13 01:45:07;;;;;;;4.90;2.75;;;;;;;19.93;59.94;100883.75;5072639;28;20053;-65
2022/09/13 01:47:44;;;;;;;5.72;2.83;;;;;;;19.91;59.89;100873.13;5076457;28;20052;-65
2022/09/13 01:50:20;;;;;;;4.35;2.80;;;;;;;19.91;60.08;100875.03;5076661;28;20045;-65
2022/09/13 01:52:54;;;;;;;4.57;3.35;;;;;;;19.88;59.93;100868.22;5081816;28;20052;-65
2022/09/13 01:55:33;;;;;;;5.45;3.13;;;;;;;19.90;59.88;100870.69;5084320;28;20040;-65
2022/09/13 01:58:09;;;;;;;3.95;2.63;;;;;;;19.88;60.04;100864.69;5079316;28;20052;-65
2022/09/13 02:00:44;;;;;;;5.60;3.05;;;;;;;19.86;60.05;100872.34;5079133;28;20048;-65
2022/09/13 02:03:17;;;;;;;6.18;3.15;;;;;;;19.87;60.00;100876.69;5078745;28;20049;-65
2022/09/13 02:05:49;;;;;;;4.10;2.90;;;;;;;19.86;60.15;100877.78;5068552;28;20068;-65
2022/09/13 02:08:21;;;;;;;4.53;3.10;;;;;;;19.86;60.18;100872.34;5081335;28;20049;-65
2022/09/13 02:10:53;;;;;;;4.60;3.03;;;;;;;19.85;60.00;100885.16;5077169;28;20049;-65
2022/09/13 02:13:24;;;;;;;4.63;3.42;;;;;;;19.83;60.43;100871.00;5072492;28;20060;-65
2022/09/13 02:15:58;;;;;;;4.47;3.30;;;;;;;19.82;60.42;100875.63;5068261;28;20052;-65
2022/09/13 02:18:32;;;;;;;5.53;3.60;;;;;;;19.81;60.31;100871.28;5075130;28;20048;-65
2022/09/13 02:21:06;;;;;;;4.72;3.50;;;;;;;19.82;60.24;100880.28;5076799;28;20045;-65
2022/09/13 02:23:41;;;;;;;3.95;3.20;;;;;;;19.81;60.44;100881.38;5076171;28;20049;-65
2022/09/13 02:26:11;;;;;;;5.65;3.30;;;;;;;19.81;60.49;100890.38;5077285;28;20076;-65
2022/09/13 02:28:43;;;;;;;5.07;3.30;;;;;;;19.79;60.53;100889.84;5079037;28;20045;-65
2022/09/13 02:31:13;;;;;;;7.65;3.55;;;;;;;19.79;60.63;100892.56;5074323;28;20055;-65
2022/09/13 02:33:46;;;;;;;4.63;3.17;;;;;;;19.79;60.57;100889.84;5081367;28;20049;-65
2022/09/13 02:36:19;;;;;;;4.75;3.08;;;;;;;19.78;60.78;100890.94;5079944;28;20045;-65
2022/09/13 02:38:54;;;;;;;3.90;3.03;;;;;;;19.77;60.67;100894.75;5081324;28;20040;-65
2022/09/13 02:41:28;;;;;;;4.93;3.00;;;;;;;19.76;60.71;100893.13;5064789;28;20056;-65
2022/09/13 02:44:03;;;;;;;6.90;3.22;;;;;;;19.76;60.86;100895.84;5081105;28;20062;-65
2022/09/13 02:46:46;;;;;;;5.68;3.08;;;;;;;19.76;60.98;100895.84;5075229;28;20040;-65
2022/09/13 02:49:25;;;;;;;3.42;2.80;;;;;;;19.76;61.10;100906.75;5075620;28;20055;-65
2022/09/13 02:51:57;;;;;;;4.50;3.15;;;;;;;19.75;61.16;100899.69;5071897;28;20055;-65
2022/09/13 02:54:33;;;;;;;3.47;2.80;;;;;;;19.75;61.09;100905.13;5081408;28;20052;-65
2022/09/13 02:57:06;;;;;;;9.02;3.08;;;;;;;19.74;60.98;100906.22;5076569;28;20058;-65
2022/09/13 02:59:34;;;;;;;5.45;3.25;;;;;;;19.73;60.92;100895.59;5070651;28;20103;-65
2022/09/13 03:02:06;;;;;;;4.22;3.00;;;;;;;19.73;60.98;100892.88;5073447;28;20048;-65
2022/09/13 03:04:36;;;;;;;6.07;3.20;;;;;;;19.73;61.10;100899.16;5077504;28;20223;-65
2022/09/13 03:07:06;;;;;;;5.55;3.13;;;;;;;19.71;61.03;100893.16;5074701;28;20047;-65
2022/09/13 03:09:34;;;;;;;4.57;2.95;;;;;;;19.70;61.24;100899.72;5080767;28;20044;-65
2022/09/13 03:12:19;;;;;;;5.28;3.28;;;;;;;19.69;61.09;100897.25;5081833;28;20155;-65
2022/09/13 03:14:55;;;;;;;3.97;2.92;;;;;;;19.68;60.98;100892.91;5067840;28;20063;-65
2022/09/13 03:17:36;;;;;;;3.45;3.15;;;;;;;19.68;60.95;100887.44;5077705;28;20049;-65
2022/09/13 03:20:12;;;;;;;5.75;3.72;;;;;;;19.67;61.04;100885.81;5074656;28;20048;-65
2022/09/13 03:23:10;;;;;;;4.28;2.90;;;;;;;19.66;61.29;100885.00;5080579;28;20051;-65
2022/09/13 03:25:57;;;;;;;5.35;3.05;;;;;;;19.65;61.18;100883.38;5065091;28;20049;-65
2022/09/13 03:28:34;;;;;;;3.75;2.80;;;;;;;19.64;61.33;100887.19;5074239;28;20041;-64
2022/09/13 03:31:06;;;;;;;3.53;2.97;;;;;;;19.63;61.46;100884.75;5071365;28;20049;-65
2022/09/13 03:33:43;;;;;;;4.70;3.30;;;;;;;19.63;61.28;100873.84;5072470;28;20037;-64
2022/09/13 03:36:17;;;;;;;6.47;3.28;;;;;;;19.61;61.55;100885.03;5069196;28;20052;-64
2022/09/13 03:38:55;;;;;;;4.13;2.92;;;;;;;19.62;61.46;100885.84;5081138;28;20044;-64
2022/09/13 03:41:27;;;;;;;5.43;2.90;;;;;;;19.60;61.32;100882.59;5069185;28;20093;-65
2022/09/13 03:43:59;;;;;;;5.72;3.25;;;;;;;19.60;61.38;100879.84;5088401;28;20041;-65
2022/09/13 03:46:30;;;;;;;3.83;2.75;;;;;;;19.60;61.66;100874.41;5081702;28;20056;-65
2022/09/13 03:49:03;;;;;;;3.50;2.95;;;;;;;19.58;61.61;100871.97;5070827;28;20052;-65
2022/09/13 03:51:33;;;;;;;6.55;3.83;;;;;;;19.58;61.68;100873.88;5080904;28;20062;-65
2022/09/13 03:54:04;;;;;;;3.38;2.83;;;;;;;19.57;61.67;100880.41;5079023;28;20049;-65
2022/09/13 03:56:32;;;;;;;5.60;3.30;;;;;;;19.56;61.83;100884.25;5076747;28;20052;-65
2022/09/13 03:59:00;;;;;;;3.10;2.53;;;;;;;19.57;61.87;100894.06;5080156;28;20076;-65
2022/09/13 04:01:28;;;;;;;4.85;3.13;;;;;;;19.55;61.89;100883.44;5077806;28;20056;-65
2022/09/13 04:03:55;;;;;;;4.40;3.42;;;;;;;19.56;62.08;100895.16;5080632;28;20054;-65
2022/09/13 04:06:24;;;;;;;3.80;2.78;;;;;;;19.55;61.77;100888.06;5070426;28;20060;-65
2022/09/13 04:08:53;;;;;;;4.47;2.67;;;;;;;19.54;61.56;100881.78;5076705;28;20041;-65
2022/09/13 04:11:21;;;;;;;4.80;3.20;;;;;;;19.53;61.72;100874.72;5081781;28;20049;-65
2022/09/13 04:13:48;;;;;;;3.40;2.83;;;;;;;19.53;62.00;100874.72;5080552;28;20048;-65
2022/09/13 04:16:16;;;;;;;5.80;3.50;;;;;;;19.53;61.64;100879.34;5070903;28;20041;-65
2022/09/13 04:18:44;;;;;;;5.32;2.95;;;;;;;19.52;61.96;100880.44;5073840;28;20064;-65
2022/09/13 04:21:11;;;;;;;4.40;2.92;;;;;;;19.53;62.06;100890.25;5076948;28;20049;-65
2022/09/13 04:23:39;;;;;;;5.40;3.10;;;;;;;19.52;62.11;100880.44;5075058;28;20049;-65
2022/09/13 04:26:09;;;;;;;4.50;2.80;;;;;;;19.52;62.19;100888.63;5081595;28;20048;-65
2022/09/13 04:28:37;;;;;;;4.57;3.08;;;;;;;19.50;62.14;100886.97;5080320;28;20041;-65
2022/09/13 04:31:05;;;;;;;3.50;2.92;;;;;;;19.50;61.95;100902.50;5080649;28;20147;-65
2022/09/13 04:33:32;;;;;;;6.40;3.30;;;;;;;19.50;62.04;100907.97;5083805;28;20067;-65
2022/09/13 04:36:00;;;;;;;4.82;3.25;;;;;;;19.41;62.22;100893.28;5072053;28;20049;-65
2022/09/13 04:38:30;;;;;;;6.78;3.08;;;;;;;19.49;62.14;100900.88;5077229;28;20041;-65
2022/09/13 04:40:58;;;;;;;4.07;3.38;;;;;;;19.44;62.20;100914.53;5077429;28;20075;-65
2022/09/13 04:43:27;;;;;;;4.90;3.00;;;;;;;19.47;62.49;100920.22;5080562;28;20048;-65
2022/09/13 04:45:59;;;;;;;4.90;3.25;;;;;;;19.48;62.38;100913.69;5080821;28;20066;-64
2022/09/13 04:48:27;;;;;;;5.15;3.13;;;;;;;19.47;62.39;100913.97;5075935;28;20068;-65
2022/09/13 04:51:01;;;;;;;4.57;3.15;;;;;;;19.46;62.15;100910.44;5076432;28;20045;-64
2022/09/13 04:53:28;;;;;;;5.45;3.45;;;;;;;19.45;62.13;100916.97;5086249;28;20044;-64
2022/09/13 04:56:01;;;;;;;12.50;3.47;;;;;;;19.45;62.34;100918.88;5081997;28;20489;-65
2022/09/13 04:58:30;;;;;;;4.22;3.25;;;;;;;19.43;62.30;100913.72;5083422;28;20054;-64
2022/09/13 05:01:01;;;;;;;3.40;2.90;;;;;;;19.43;62.43;100916.44;5079377;28;20055;-64
2022/09/13 05:03:30;;;;;;;4.30;3.10;;;;;;;19.39;62.32;100909.91;5084313;28;20101;-65
2022/09/13 05:06:02;;;;;;;4.32;2.75;;;;;;;19.42;62.42;100903.91;5068294;28;20049;-64
2022/09/13 05:08:30;;;;;;;6.72;3.08;;;;;;;19.41;62.56;100902.28;5086706;28;20049;-64
2022/09/13 05:10:58;;;;;;;4.53;2.85;;;;;;;19.41;62.63;100907.72;5080512;28;20482;-63
2022/09/13 05:13:27;;;;;;;5.32;3.13;;;;;;;19.41;62.37;100905.00;5085170;28;20049;-64
2022/09/13 05:15:56;;;;;;;5.40;3.50;;;;;;;19.40;62.49;100908.00;5081082;28;20048;-64
2022/09/13 05:18:26;;;;;;;4.10;2.80;;;;;;;19.39;62.60;100904.47;5084183;28;20116;-63
2022/09/13 05:20:55;;;;;;;4.50;3.38;;;;;;;19.39;62.80;100907.19;5081452;28;20052;-64
2022/09/13 05:23:23;;;;;;;6.00;3.40;;;;;;;19.38;62.53;100908.28;5081341;28;20062;-64
2022/09/13 05:25:53;;;;;;;3.97;3.08;;;;;;;19.36;62.60;100913.19;5082201;28;20047;-63
2022/09/13 05:28:21;;;;;;;4.68;2.80;;;;;;;19.37;62.82;100911.28;5080141;28;20135;-63
2022/09/13 05:30:57;;;;;;;4.30;3.00;;;;;;;19.33;62.84;100908.31;5076055;28;20068;-65
2022/09/13 05:33:26;;;;;;;4.18;2.88;;;;;;;19.34;62.89;100914.56;5066701;28;20044;-67
2022/09/13 05:35:54;;;;;;;4.85;3.28;;;;;;;19.33;62.63;100911.03;5073567;28;20557;-64
2022/09/13 05:38:22;;;;;;;7.38;3.28;;;;;;;19.33;62.91;100921.94;5068238;28;20048;-71
2022/09/13 05:40:55;;;;;;;6.05;3.70;;;;;;;19.34;62.83;100928.19;5075546;28;20049;-67
2022/09/13 05:43:23;;;;;;;5.03;3.45;;;;;;;19.32;62.96;100920.28;5066135;28;20482;-67
2022/09/13 05:46:01;;;;;;;6.53;3.97;;;;;;;19.32;62.67;100922.22;5073565;28;20135;-67
2022/09/13 05:48:30;;;;;;;5.57;3.53;;;;;;;19.32;62.81;100920.28;5075339;28;20056;-67
2022/09/13 05:51:04;;;;;;;4.05;3.10;;;;;;;19.32;62.66;100924.94;5078643;28;20048;-67
2022/09/13 05:53:32;;;;;;;3.60;3.08;;;;;;;19.30;62.62;100921.66;5071474;28;20281;-67
2022/09/13 05:56:00;;;;;;;5.07;3.45;;;;;;;19.30;62.51;100924.38;5073972;28;20049;-67
2022/09/13 05:58:28;;;;;;;4.38;3.35;;;;;;;19.30;62.58;100918.94;5072777;28;20045;-66
2022/09/13 06:00:56;;;;;;;5.13;3.90;;;;;;;19.30;62.53;100921.66;5077036;28;20053;-67
2022/09/13 06:03:26;;;;;;;3.58;2.70;;;;;;;19.29;62.45;100925.47;5069892;28;20068;-65
2022/09/13 06:05:55;;;;;;;5.07;3.28;;;;;;;19.29;62.50;100926.31;5067299;28;20063;-68
2022/09/13 06:08:23;;;;;;;7.78;3.55;;;;;;;19.29;62.26;100926.31;5068829;28;20151;-68
2022/09/13 06:10:55;;;;;;;7.38;3.20;;;;;;;19.28;62.51;100930.13;5086809;28;20060;-65
2022/09/13 06:13:24;;;;;;;8.75;3.42;;;;;;;19.28;62.41;100935.56;5081853;28;20072;-68
2022/09/13 06:15:52;;;;;;;7.60;3.00;;;;;;;19.28;63.15;100918.41;5073759;28;20052;-68
2022/09/13 06:18:20;;;;;;;8.07;4.38;;;;;;;19.28;62.84;100929.31;5076379;28;20067;-68
2022/09/13 06:20:50;;;;;;;5.80;3.40;;;;;;;19.29;62.90;100934.47;5071582;28;20147;-68
2022/09/13 06:23:18;;;;;;;4.22;3.10;;;;;;;19.28;62.66;100932.84;5069689;28;20064;-68
2022/09/13 06:25:46;;;;;;;6.13;3.60;;;;;;;19.30;62.81;100932.56;5072046;28;20041;-68
2022/09/13 06:28:13;;;;;;;9.45;3.90;;;;;;;19.28;62.96;100929.31;5081494;28;20048;-68
2022/09/13 06:30:41;;;;;;;7.75;3.30;;;;;;;19.28;62.88;100927.41;5071026;28;20045;-68
2022/09/13 06:33:08;;;;;;;5.25;3.10;;;;;;;19.28;62.78;100923.84;5079395;28;20363;-68
2022/09/13 06:35:37;;;;;;;6.88;3.30;;;;;;;19.28;62.90;100921.13;5071628;28;20044;-68
2022/09/13 06:38:06;;;;;;;4.97;3.08;;;;;;;19.28;62.94;100916.50;5068716;28;20045;-67
2022/09/13 06:40:33;;;;;;;4.55;3.30;;;;;;;19.27;62.72;100914.03;5076775;28;20056;-68
2022/09/13 06:43:01;;;;;;;7.10;3.25;;;;;;;19.28;62.79;100915.69;5078720;28;20055;-68
2022/09/13 06:45:29;;;;;;;5.47;3.55;;;;;;;19.29;62.95;100928.22;5075477;28;20052;-68
2022/09/13 06:47:56;;;;;;;5.75;3.05;;;;;;;19.28;62.95;100924.66;5070665;28;20387;-67
2022/09/13 06:50:24;;;;;;;4.80;3.30;;;;;;;19.28;62.89;100912.94;5074101;28;20036;-68
2022/09/13 06:52:52;;;;;;;7.10;3.58;;;;;;;19.28;62.74;100921.94;5078266;28;20044;-68
2022/09/13 06:55:21;;;;;;;7.22;3.65;;;;;;;19.29;62.94;100917.31;5084189;28;20060;-68
2022/09/13 06:57:49;;;;;;;6.32;3.78;;;;;;;19.28;62.91;100927.41;5080092;28;20057;-68
2022/09/13 07:00:17;;;;;;;6.35;3.67;;;;;;;19.28;62.94;100921.94;5083396;28;20462;-68
2022/09/13 07:02:44;;;;;;;5.65;3.60;;;;;;;19.29;62.75;100920.03;5081261;28;20055;-68
2022/09/13 07:05:12;;;;;;;7.00;3.28;;;;;;;19.29;62.84;100920.03;5079838;28;20064;-68
2022/09/13 07:07:40;;;;;;;4.07;3.35;;;;;;;19.29;62.78;100922.75;5074177;28;20104;-68
2022/09/13 07:10:08;;;;;;;6.20;3.45;;;;;;;19.29;62.62;100928.22;5079574;28;20494;-68
2022/09/13 07:12:40;;;;;;;5.30;3.65;;;;;;;19.28;62.78;100927.41;5079155;28;20044;-68
2022/09/13 07:15:09;;;;;;;5.18;3.65;;;;;;;19.29;62.60;100925.47;5079908;28;20057;-68
2022/09/13 07:17:36;;;;;;;4.93;3.15;;;;;;;19.29;62.45;100928.22;5076295;28;20052;-68
2022/09/13 07:20:07;;;;;;;4.43;2.95;;;;;;;19.28;62.38;100932.84;5078549;28;20040;-68
2022/09/13 07:22:35;;;;;;;5.82;2.90;;;;;;;19.30;62.34;100927.13;5082489;28;20051;-68
2022/09/13 07:25:02;;;;;;;4.82;3.42;;;;;;;19.30;62.21;100930.66;5081372;28;20049;-68
2022/09/13 07:27:31;;;;;;;7.43;3.47;;;;;;;19.31;62.17;100931.47;5079777;28;20053;-68
2022/09/13 07:30:00;;;;;;;4.47;3.30;;;;;;;19.29;62.40;100928.22;5069842;28;20045;-68
2022/09/13 07:32:27;;;;;;;6.70;3.58;;;;;;;19.31;62.27;100928.75;5080427;28;20044;-68
2022/09/13 07:34:55;;;;;;;7.32;3.83;;;;;;;19.33;62.23;100940.19;5068003;28;20049;-68
2022/09/13 07:37:23;;;;;;;6.70;3.97;;;;;;;19.31;62.19;100934.19;5079452;28;20060;-68
2022/09/13 07:39:50;;;;;;;6.47;3.00;;;;;;;19.34;61.97;100936.38;5080263;28;20036;-68
2022/09/13 07:42:18;;;;;;;5.55;3.33;;;;;;;19.33;62.28;100932.81;5064566;28;20049;-68
2022/09/13 07:44:46;;;;;;;6.22;3.80;;;;;;;19.33;62.22;100934.72;5081782;28;20052;-68
2022/09/13 07:47:15;;;;;;;6.63;3.33;;;;;;;19.33;61.98;100937.47;5069059;28;20060;-67
2022/09/13 07:49:42;;;;;;;4.50;3.25;;;;;;;19.33;62.01;100941.00;5075548;28;20449;-68
2022/09/13 07:52:10;;;;;;;4.95;3.33;;;;;;;19.35;62.13;100938.81;5069653;28;20465;-67
2022/09/13 07:54:37;;;;;;;6.68;3.90;;;;;;;19.35;62.16;100943.44;5080732;28;20045;-68
2022/09/13 07:57:05;;;;;;;6.05;3.58;;;;;;;19.35;62.24;100943.44;5084015;28;20062;-67
2022/09/13 07:59:33;;;;;;;5.68;3.85;;;;;;;19.35;62.27;100946.19;5079413;28;20064;-68
2022/09/13 08:02:00;;;;;;;5.57;3.80;;;;;;;19.36;62.33;100953.25;5077717;28;20049;-68
2022/09/13 08:04:30;;;;;;;5.63;3.72;;;;;;;19.37;62.23;100952.16;5076674;28;20067;-68
2022/09/13 08:07:02;;;;;;;6.80;3.28;;;;;;;19.38;62.30;100954.63;5070840;28;20533;-68
2022/09/13 08:09:30;;;;;;;7.65;3.67;;;;;;;19.39;62.14;100955.44;5072891;28;20047;-68
2022/09/13 08:11:58;;;;;;;5.72;3.55;;;;;;;19.39;62.06;100948.06;5079159;28;20052;-68
2022/09/13 08:14:25;;;;;;;6.45;3.83;;;;;;;19.39;62.37;100950.78;5076247;28;20057;-68
2022/09/13 08:16:55;;;;;;;5.60;3.67;;;;;;;19.40;62.13;100951.63;5063062;28;20469;-68
2022/09/13 08:19:23;;;;;;;5.32;3.97;;;;;;;19.41;62.18;100953.25;5065723;28;20060;-68
2022/09/13 08:21:52;;;;;;;6.53;3.80;;;;;;;19.43;62.34;100959.22;5079547;28;20410;-68
2022/09/13 08:24:21;;;;;;;5.40;3.75;;;;;;;19.43;62.42;100957.31;5078861;28;20055;-68
2022/09/13 08:26:50;;;;;;;8.63;3.60;;;;;;;19.45;62.30;100955.13;5083573;28;20067;-68
2022/09/13 08:29:18;;;;;;;8.90;4.38;;;;;;;19.48;62.44;100962.75;5083951;28;20120;-68
2022/09/13 08:31:46;;;;;;;4.85;3.60;;;;;;;19.48;62.45;100965.47;5073577;28;20045;-68
2022/09/13 08:34:16;;;;;;;8.60;4.00;;;;;;;19.50;62.24;100963.28;5076130;28;20049;-67
2022/09/13 08:36:44;;;;;;;6.05;4.22;;;;;;;19.52;62.52;100967.69;5078536;28;20493;-68
2022/09/13 08:39:13;;;;;;;6.18;3.97;;;;;;;19.54;62.42;100968.22;5080896;28;20048;-67
2022/09/13 08:41:59;;;;;;;6.53;3.88;;;;;;;19.56;62.33;100960.59;5079155;28;20075;-68
2022/09/13 08:44:29;;;;;;;8.30;4.70;;;;;;;19.57;62.57;100970.38;5068581;28;20045;-67
2022/09/13 08:47:04;;;;;;;9.32;4.10;;;;;;;19.58;62.56;100963.84;5086506;28;20078;-67
2022/09/13 08:49:36;;;;;;;6.68;4.18;;;;;;;19.60;62.55;100957.03;5082868;28;20045;-67
2022/09/13 08:52:17;;;;;;;7.88;4.25;;;;;;;19.62;62.71;100962.19;5086609;28;20056;-67
2022/09/13 08:54:46;;;;;;;6.25;4.35;;;;;;;19.64;62.76;100957.28;5073541;28;20139;-67
2022/09/13 08:57:18;;;;;;;9.02;4.47;;;;;;;19.65;62.86;100957.00;5083963;28;20049;-67
2022/09/13 08:59:54;;;;;;;7.18;4.80;;;;;;;19.68;62.80;100948.25;5080454;28;20067;-67
2022/09/13 09:02:40;;;;;;;10.35;5.20;;;;;;;19.69;62.85;100949.88;5085676;28;20041;-67
2022/09/13 09:05:16;;;;;;;9.27;4.88;;;;;;;19.72;63.07;100954.78;5084635;28;20056;-68
2022/09/13 09:07:47;;;;;;;10.70;5.95;;;;;;;19.74;63.40;100944.41;5075493;28;20060;-68
2022/09/13 09:10:20;;;;;;;12.52;8.20;;;;;;;19.75;63.72;100940.59;5084809;28;20059;-68
2022/09/13 09:12:52;;;;;;;10.23;7.07;;;;;;;19.78;63.92;100948.22;5070229;28;20059;-68
2022/09/13 09:15:22;;;;;;;10.35;6.90;;;;;;;19.80;63.68;100943.28;5080465;28;20048;-68
2022/09/13 09:17:58;;;;;;;11.90;6.43;;;;;;;19.81;63.56;100947.66;5078418;28;20645;-67
2022/09/13 09:20:31;;;;;;;10.75;5.88;;;;;;;19.81;63.73;100941.38;5083244;28;20044;-67
2022/09/13 09:23:02;;;;;;;8.90;5.60;;;;;;;19.86;63.67;100943.25;5076986;28;20079;-68
2022/09/13 09:25:34;;;;;;;11.80;6.28;;;;;;;19.87;63.66;100948.44;5077268;28;20059;-68
2022/09/13 09:28:09;;;;;;;9.40;6.25;;;;;;;19.90;63.83;100942.41;5081056;28;20056;-67
2022/09/13 09:30:43;;;;;;;10.38;5.50;;;;;;;19.92;63.83;100953.03;5080187;28;20049;-67
2022/09/13 09:33:27;;;;;;;9.75;5.88;;;;;;;19.95;63.56;100957.94;5070560;28;20052;-68
2022/09/13 09:36:02;;;;;;;9.00;5.20;;;;;;;19.96;63.85;100954.94;5074668;28;20052;-67
2022/09/13 09:38:38;;;;;;;6.53;4.93;;;;;;;19.98;63.85;100949.19;5069322;28;20055;-68
2022/09/13 09:41:15;;;;;;;8.38;4.65;;;;;;;20.00;63.72;100942.34;5075780;28;20048;-68
2022/09/13 09:43:44;;;;;;;;;;;;;;;20.02;63.87;100942.88;5081704;28;20049;-68
2022/09/13 09:46:16;;;;;;;9.88;4.90;;;;;;;20.04;63.76;100934.41;5084958;28;19927;-67
2022/09/13 09:48:48;;;;;;;8.85;4.60;;;;;;;20.06;63.86;100938.50;5085737;28;20055;-67
2022/09/13 09:51:18;;;;;;;10.27;4.65;;;;;;;20.09;63.90;100937.94;5082747;28;20059;-68
2022/09/13 09:53:50;;;;;;;7.90;5.35;;;;;;;20.11;64.07;100940.38;5072319;28;20054;-69
2022/09/13 09:56:24;;;;;;;7.32;5.00;;;;;;;20.12;63.92;100931.91;5078727;28;20052;-68
2022/09/13 09:58:54;;;;;;;11.88;5.40;;;;;;;20.12;63.82;100929.19;5080699;28;20060;-69
2022/09/13 10:01:25;;;;;;;8.20;5.15;;;;;;;20.14;63.99;100935.16;5088493;28;20044;-69
2022/09/13 10:04:00;;;;;;;6.53;4.63;;;;;;;20.17;64.04;100941.16;5075695;28;20060;-69
2022/09/13 10:06:29;;;;;;;7.20;4.95;;;;;;;20.21;64.03;100940.31;5081306;28;20052;-68
2022/09/13 10:09:01;;;;;;;12.07;5.25;;;;;;;20.24;64.10;100944.38;5083721;28;20056;-69
2022/09/13 10:11:42;;;;;;;8.02;4.63;;;;;;;20.26;64.15;100942.19;5077492;28;20359;-69
2022/09/13 10:14:30;;;;;;;8.77;5.57;;;;;;;20.28;64.09;100935.34;5082226;28;20362;-69
2022/09/13 10:17:17;;;;;;;7.95;5.20;;;;;;;20.30;64.26;100935.88;5075140;28;20063;-69
2022/09/13 10:19:56;;;;;;;;;;;;;;;20.33;64.13;100929.84;5068606;28;20406;-69
2022/09/13 10:22:25;;;;;;;11.13;5.65;;;;;;;20.35;64.14;100929.56;5082422;28;19921;-69
2022/09/13 10:24:52;;;;;;;9.35;5.82;;;;;;;20.38;64.26;100929.00;5081969;28;20049;-69
2022/09/13 10:27:29;;;;;;;8.93;4.63;;;;;;;20.38;64.35;100924.38;5076037;28;20060;-69
2022/09/13 10:29:59;;;;;;;6.22;4.50;;;;;;;20.44;64.18;100928.69;5073580;28;20048;-69
2022/09/13 10:32:28;;;;;;;7.00;4.53;;;;;;;20.46;63.82;100931.97;5084692;28;20157;-68
2022/09/13 10:35:01;;;;;;;5.95;4.05;;;;;;;20.48;63.96;100937.13;5070080;28;20044;-68
2022/09/13 10:37:32;;;;;;;8.35;4.45;;;;;;;20.51;64.02;100927.56;5079615;28;20045;-68
2022/09/13 10:40:06;;;;;;;6.68;3.85;;;;;;;20.53;64.16;100926.16;5083632;28;20049;-68
2022/09/13 10:42:36;;;;;;;8.18;4.78;;;;;;;20.57;63.97;100924.50;5075631;28;20048;-68
2022/09/13 10:45:06;;;;;;;9.50;4.65;;;;;;;20.59;63.76;100925.03;5066895;28;20044;-68
2022/09/13 10:47:39;;;;;;;8.23;4.70;;;;;;;20.62;63.93;100920.91;5080247;28;20059;-68
2022/09/13 10:50:19;;;;;;;5.88;4.00;;;;;;;20.65;64.13;100918.41;5084212;28;20059;-68
2022/09/13 10:52:48;;;;;;;12.05;5.25;;;;;;;20.69;64.09;100919.47;5074062;28;20040;-70
2022/09/13 10:55:34;;;;;;;10.95;5.13;;;;;;;20.71;63.81;100920.00;5078453;28;20144;-68
2022/09/13 10:58:29;;;;;;;7.40;4.88;;;;;;;20.74;64.00;100911.22;4800360;28;10001434;-68
2022/09/13 11:01:35;;;;;;;9.70;5.53;;;;;;;20.78;64.12;100915.00;5059531;28;20295;-68
2022/09/13 11:04:45;;;;;;;6.75;4.32;;;;;;;20.82;64.09;100906.22;5024458;28;20189;-68
2022/09/13 11:07:34;;;;;;;9.00;5.65;;;;;;;20.85;64.26;100902.91;5020101;28;20069;-69
2022/09/13 11:10:05;;;;;;;8.90;5.45;;;;;;;20.87;64.15;100901.50;5027224;28;20485;-68
2022/09/13 11:12:43;;;;;;;5.43;4.00;;;;;;;20.91;64.08;100899.81;5018907;28;20625;-68
2022/09/13 11:15:26;;;;;;;6.85;4.32;;;;;;;20.96;64.11;100907.97;5022142;28;20539;-68
2022/09/13 11:18:09;;;;;;;7.13;5.22;;;;;;;21.01;64.23;100894.25;5023629;28;20096;-68
2022/09/13 11:20:47;;;;;;;8.52;4.38;;;;;;;21.04;64.28;100895.59;5024857;28;20045;-68
2022/09/13 11:23:41;;;;;;;5.53;4.75;;;;;;;21.07;64.34;100897.75;5022633;28;20046;-68
2022/09/13 11:26:35;;;;;;;10.88;5.97;;;;;;;21.09;64.20;100890.88;5021858;28;20309;-68
2022/09/13 11:29:18;;;;;;;8.73;4.10;;;;;;;21.13;64.30;100891.94;5017497;28;20107;-68
2022/09/13 11:31:59;;;;;;;8.23;3.90;;;;;;;21.17;64.32;100891.34;5029066;28;20050;-69
2022/09/13 11:34:43;;;;;;;7.68;4.28;;;;;;;21.19;64.37;100887.22;5022123;28;20053;-69
2022/09/13 11:37:25;;;;;;;6.85;3.88;;;;;;;21.24;64.19;100881.72;5030131;28;20077;-68
2022/09/13 11:40:02;;;;;;;7.55;4.15;;;;;;;21.29;64.09;100878.09;5080100;28;20044;-68
2022/09/13 11:42:42;;;;;;;7.10;4.85;;;;;;;21.34;64.19;100878.03;5079999;28;20107;-69
2022/09/13 11:45:24;;;;;;;8.05;4.30;;;;;;;21.35;64.04;100874.22;5081448;28;20045;-69
2022/09/13 11:48:08;;;;;;;7.45;4.40;;;;;;;21.37;63.79;100874.72;5080043;28;20051;-68
2022/09/13 11:50:46;;;;;;;7.30;3.83;;;;;;;21.39;63.86;100883.44;5078748;28;20048;-68